sensor_id;sensor_type;location;lat;lon;timestamp;P1;durP1;ratioP1;P2;durP2;ratioP2
39018;SDS011;24786;51.984;5.872;2022-10-17T00:02:14;16.65;;;9.73;;
39018;SDS011;24786;51.984;5.872;2022-10-17T00:04:55;13.88;;;9.52;;
39018;SDS011;24786;51.984;5.872;2022-10-17T00:07:36;13.05;;;9.82;;
39018;SDS011;24786;51.984;5.872;2022-10-17T00:10:04;14.68;;;9.70;;
39018;SDS011;24786;51.984;5.872;2022-10-17T00:12:46;11.95;;;8.75;;
39018;SDS011;24786;51.984;5.872;2022-10-17T00:15:16;15.82;;;10.10;;
39018;SDS011;24786;51.984;5.872;2022-10-17T00:17:58;14.38;;;9.98;;
39018;SDS011;24786;51.984;5.872;2022-10-17T00:20:24;14.55;;;9.43;;
39018;SDS011;24786;51.984;5.872;2022-10-17T00:23:07;12.98;;;9.35;;
39018;SDS011;24786;51.984;5.872;2022-10-17T00:25:56;15.93;;;11.02;;
39018;SDS011;24786;51.984;5.872;2022-10-17T00:28:55;14.13;;;10.93;;
39018;SDS011;24786;51.984;5.872;2022-10-17T00:31:21;15.10;;;11.38;;
39018;SDS011;24786;51.984;5.872;2022-10-17T00:33:51;17.42;;;10.35;;
39018;SDS011;24786;51.984;5.872;2022-10-17T00:36:18;12.35;;;9.82;;
39018;SDS011;24786;51.984;5.872;2022-10-17T00:41:42;13.15;;;9.55;;
39018;SDS011;24786;51.984;5.872;2022-10-17T00:47:10;13.73;;;9.90;;
39018;SDS011;24786;51.984;5.872;2022-10-17T00:49:41;12.68;;;9.32;;
39018;SDS011;24786;51.984;5.872;2022-10-17T00:52:17;16.70;;;10.98;;
39018;SDS011;24786;51.984;5.872;2022-10-17T00:55:19;18.00;;;10.55;;
39018;SDS011;24786;51.984;5.872;2022-10-17T00:57:55;15.18;;;11.02;;
39018;SDS011;24786;51.984;5.872;2022-10-17T01:00:34;14.57;;;10.70;;
39018;SDS011;24786;51.984;5.872;2022-10-17T01:03:00;16.50;;;10.70;;
39018;SDS011;24786;51.984;5.872;2022-10-17T01:05:26;16.92;;;11.50;;
39018;SDS011;24786;51.984;5.872;2022-10-17T01:07:55;14.60;;;11.40;;
39018;SDS011;24786;51.984;5.872;2022-10-17T01:10:25;17.55;;;11.30;;
39018;SDS011;24786;51.984;5.872;2022-10-17T01:13:04;15.07;;;11.48;;
39018;SDS011;24786;51.984;5.872;2022-10-17T01:16:09;15.88;;;11.13;;
39018;SDS011;24786;51.984;5.872;2022-10-17T01:22:17;15.32;;;11.68;;
39018;SDS011;24786;51.984;5.872;2022-10-17T01:31:10;15.40;;;10.90;;
39018;SDS011;24786;51.984;5.872;2022-10-17T01:37:24;17.33;;;11.40;;
39018;SDS011;24786;51.984;5.872;2022-10-17T01:40:19;15.73;;;10.77;;
39018;SDS011;24786;51.984;5.872;2022-10-17T01:48:56;16.88;;;11.38;;
39018;SDS011;24786;51.984;5.872;2022-10-17T01:51:27;15.98;;;11.27;;
39018;SDS011;24786;51.984;5.872;2022-10-17T01:54:02;17.45;;;11.38;;
39018;SDS011;24786;51.984;5.872;2022-10-17T01:56:46;14.45;;;11.75;;
39018;SDS011;24786;51.984;5.872;2022-10-17T01:59:16;15.70;;;11.52;;
39018;SDS011;24786;51.984;5.872;2022-10-17T02:02:26;17.20;;;12.38;;
39018;SDS011;24786;51.984;5.872;2022-10-17T02:04:53;13.15;;;10.85;;
39018;SDS011;24786;51.984;5.872;2022-10-17T02:07:40;17.77;;;11.13;;
39018;SDS011;24786;51.984;5.872;2022-10-17T02:10:18;17.52;;;11.27;;
39018;SDS011;24786;51.984;5.872;2022-10-17T02:13:09;21.98;;;12.70;;
39018;SDS011;24786;51.984;5.872;2022-10-17T02:24:32;14.02;;;10.35;;
39018;SDS011;24786;51.984;5.872;2022-10-17T02:29:41;16.35;;;11.57;;
39018;SDS011;24786;51.984;5.872;2022-10-17T02:35:19;16.95;;;12.07;;
39018;SDS011;24786;51.984;5.872;2022-10-17T02:37:58;15.45;;;11.10;;
39018;SDS011;24786;51.984;5.872;2022-10-17T02:40:50;15.80;;;9.85;;
39018;SDS011;24786;51.984;5.872;2022-10-17T02:43:17;13.85;;;10.30;;
39018;SDS011;24786;51.984;5.872;2022-10-17T02:45:59;15.05;;;10.52;;
39018;SDS011;24786;51.984;5.872;2022-10-17T02:48:45;19.02;;;11.02;;
39018;SDS011;24786;51.984;5.872;2022-10-17T02:57:05;15.52;;;10.30;;
39018;SDS011;24786;51.984;5.872;2022-10-17T02:59:50;14.68;;;10.35;;
39018;SDS011;24786;51.984;5.872;2022-10-17T03:02:17;15.48;;;11.43;;
39018;SDS011;24786;51.984;5.872;2022-10-17T03:04:43;17.35;;;11.35;;
39018;SDS011;24786;51.984;5.872;2022-10-17T03:07:27;15.60;;;10.80;;
39018;SDS011;24786;51.984;5.872;2022-10-17T03:10:04;19.17;;;11.68;;
39018;SDS011;24786;51.984;5.872;2022-10-17T03:12:30;13.90;;;10.32;;
39018;SDS011;24786;51.984;5.872;2022-10-17T03:15:05;13.73;;;10.13;;
39018;SDS011;24786;51.984;5.872;2022-10-17T03:17:46;15.75;;;11.00;;
39018;SDS011;24786;51.984;5.872;2022-10-17T03:20:18;12.70;;;9.68;;
39018;SDS011;24786;51.984;5.872;2022-10-17T03:22:56;13.15;;;10.02;;
39018;SDS011;24786;51.984;5.872;2022-10-17T03:25:21;12.65;;;9.82;;
39018;SDS011;24786;51.984;5.872;2022-10-17T03:27:47;12.98;;;9.55;;
39018;SDS011;24786;51.984;5.872;2022-10-17T03:30:25;16.70;;;10.40;;
39018;SDS011;24786;51.984;5.872;2022-10-17T03:32:56;15.43;;;10.20;;
39018;SDS011;24786;51.984;5.872;2022-10-17T03:38:39;16.02;;;9.95;;
39018;SDS011;24786;51.984;5.872;2022-10-17T03:41:10;14.85;;;10.05;;
39018;SDS011;24786;51.984;5.872;2022-10-17T03:43:36;12.65;;;10.10;;
39018;SDS011;24786;51.984;5.872;2022-10-17T03:46:03;14.30;;;9.75;;
39018;SDS011;24786;51.984;5.872;2022-10-17T03:48:36;17.77;;;10.43;;
39018;SDS011;24786;51.984;5.872;2022-10-17T03:51:06;12.68;;;9.30;;
39018;SDS011;24786;51.984;5.872;2022-10-17T03:53:51;14.27;;;10.13;;
39018;SDS011;24786;51.984;5.872;2022-10-17T03:56:18;14.48;;;10.20;;
39018;SDS011;24786;51.984;5.872;2022-10-17T03:59:08;13.75;;;9.75;;
39018;SDS011;24786;51.984;5.872;2022-10-17T04:01:36;13.30;;;10.02;;
39018;SDS011;24786;51.984;5.872;2022-10-17T04:04:02;13.95;;;9.98;;
39018;SDS011;24786;51.984;5.872;2022-10-17T04:06:43;16.05;;;11.38;;
39018;SDS011;24786;51.984;5.872;2022-10-17T04:09:08;17.20;;;9.75;;
39018;SDS011;24786;51.984;5.872;2022-10-17T04:11:44;13.07;;;9.90;;
39018;SDS011;24786;51.984;5.872;2022-10-17T04:14:09;14.55;;;9.50;;
39018;SDS011;24786;51.984;5.872;2022-10-17T04:16:35;13.27;;;9.68;;
39018;SDS011;24786;51.984;5.872;2022-10-17T04:19:01;12.50;;;9.50;;
39018;SDS011;24786;51.984;5.872;2022-10-17T04:21:46;13.20;;;9.98;;
39018;SDS011;24786;51.984;5.872;2022-10-17T04:24:12;12.30;;;9.35;;
39018;SDS011;24786;51.984;5.872;2022-10-17T04:26:38;13.55;;;9.60;;
39018;SDS011;24786;51.984;5.872;2022-10-17T04:29:23;13.43;;;9.43;;
39018;SDS011;24786;51.984;5.872;2022-10-17T04:31:50;12.60;;;9.60;;
39018;SDS011;24786;51.984;5.872;2022-10-17T04:34:31;11.68;;;8.93;;
39018;SDS011;24786;51.984;5.872;2022-10-17T04:37:15;12.75;;;9.30;;
39018;SDS011;24786;51.984;5.872;2022-10-17T04:39:53;16.45;;;9.55;;
39018;SDS011;24786;51.984;5.872;2022-10-17T04:42:21;15.38;;;9.68;;
39018;SDS011;24786;51.984;5.872;2022-10-17T04:44:47;13.45;;;8.93;;
39018;SDS011;24786;51.984;5.872;2022-10-17T04:47:33;11.15;;;9.27;;
39018;SDS011;24786;51.984;5.872;2022-10-17T04:52:46;15.05;;;10.02;;
39018;SDS011;24786;51.984;5.872;2022-10-17T04:55:21;12.05;;;9.30;;
39018;SDS011;24786;51.984;5.872;2022-10-17T04:57:55;11.85;;;9.75;;
39018;SDS011;24786;51.984;5.872;2022-10-17T05:00:36;15.07;;;8.93;;
39018;SDS011;24786;51.984;5.872;2022-10-17T05:08:43;12.00;;;9.30;;
39018;SDS011;24786;51.984;5.872;2022-10-17T05:11:23;12.23;;;9.20;;
39018;SDS011;24786;51.984;5.872;2022-10-17T05:14:04;15.57;;;9.05;;
39018;SDS011;24786;51.984;5.872;2022-10-17T05:16:30;14.35;;;9.52;;
39018;SDS011;24786;51.984;5.872;2022-10-17T05:19:10;14.63;;;9.43;;
39018;SDS011;24786;51.984;5.872;2022-10-17T05:21:36;11.98;;;9.13;;
39018;SDS011;24786;51.984;5.872;2022-10-17T05:26:49;14.32;;;8.85;;
39018;SDS011;24786;51.984;5.872;2022-10-17T05:29:23;13.45;;;8.68;;
39018;SDS011;24786;51.984;5.872;2022-10-17T05:31:54;10.68;;;8.60;;
39018;SDS011;24786;51.984;5.872;2022-10-17T05:37:08;11.05;;;8.38;;
39018;SDS011;24786;51.984;5.872;2022-10-17T05:42:55;10.32;;;7.95;;
39018;SDS011;24786;51.984;5.872;2022-10-17T05:45:21;10.57;;;8.40;;
39018;SDS011;24786;51.984;5.872;2022-10-17T05:47:47;10.48;;;7.68;;
39018;SDS011;24786;51.984;5.872;2022-10-17T05:50:27;9.75;;;8.05;;
39018;SDS011;24786;51.984;5.872;2022-10-17T05:52:53;11.73;;;8.50;;
39018;SDS011;24786;51.984;5.872;2022-10-17T05:55:28;12.15;;;8.38;;
39018;SDS011;24786;51.984;5.872;2022-10-17T05:58:06;10.63;;;7.93;;
39018;SDS011;24786;51.984;5.872;2022-10-17T06:00:32;9.73;;;8.10;;
39018;SDS011;24786;51.984;5.872;2022-10-17T06:03:00;10.35;;;7.75;;
39018;SDS011;24786;51.984;5.872;2022-10-17T06:05:25;11.20;;;9.35;;
39018;SDS011;24786;51.984;5.872;2022-10-17T06:07:51;10.68;;;8.50;;
39018;SDS011;24786;51.984;5.872;2022-10-17T06:10:17;11.18;;;8.90;;
39018;SDS011;24786;51.984;5.872;2022-10-17T06:12:52;15.90;;;9.38;;
39018;SDS011;24786;51.984;5.872;2022-10-17T06:15:18;14.43;;;9.48;;
39018;SDS011;24786;51.984;5.872;2022-10-17T06:17:44;10.18;;;8.73;;
39018;SDS011;24786;51.984;5.872;2022-10-17T06:20:09;10.95;;;9.20;;
39018;SDS011;24786;51.984;5.872;2022-10-17T06:22:41;12.25;;;9.05;;
39018;SDS011;24786;51.984;5.872;2022-10-17T06:25:07;10.35;;;8.82;;
39018;SDS011;24786;51.984;5.872;2022-10-17T06:27:33;12.70;;;8.55;;
39018;SDS011;24786;51.984;5.872;2022-10-17T06:29:58;13.05;;;8.20;;
39018;SDS011;24786;51.984;5.872;2022-10-17T06:32:39;12.38;;;9.25;;
39018;SDS011;24786;51.984;5.872;2022-10-17T06:35:27;12.15;;;8.50;;
39018;SDS011;24786;51.984;5.872;2022-10-17T06:37:53;14.85;;;9.00;;
39018;SDS011;24786;51.984;5.872;2022-10-17T06:40:19;11.35;;;9.02;;
39018;SDS011;24786;51.984;5.872;2022-10-17T06:42:44;10.23;;;8.80;;
39018;SDS011;24786;51.984;5.872;2022-10-17T06:45:10;15.57;;;9.20;;
39018;SDS011;24786;51.984;5.872;2022-10-17T06:47:35;14.57;;;9.60;;
39018;SDS011;24786;51.984;5.872;2022-10-17T06:50:01;13.95;;;9.95;;
39018;SDS011;24786;51.984;5.872;2022-10-17T06:52:27;12.02;;;8.68;;
39018;SDS011;24786;51.984;5.872;2022-10-17T06:54:53;12.30;;;9.65;;
39018;SDS011;24786;51.984;5.872;2022-10-17T06:57:18;12.13;;;9.23;;
39018;SDS011;24786;51.984;5.872;2022-10-17T06:59:44;14.82;;;9.35;;
39018;SDS011;24786;51.984;5.872;2022-10-17T07:02:09;13.43;;;9.40;;
39018;SDS011;24786;51.984;5.872;2022-10-17T07:04:35;14.27;;;9.63;;
39018;SDS011;24786;51.984;5.872;2022-10-17T07:07:01;13.52;;;8.75;;
39018;SDS011;24786;51.984;5.872;2022-10-17T07:09:27;12.70;;;8.35;;
39018;SDS011;24786;51.984;5.872;2022-10-17T07:11:53;15.93;;;9.45;;
39018;SDS011;24786;51.984;5.872;2022-10-17T07:14:19;12.18;;;8.68;;
39018;SDS011;24786;51.984;5.872;2022-10-17T07:16:45;10.95;;;9.20;;
39018;SDS011;24786;51.984;5.872;2022-10-17T07:19:10;10.82;;;8.00;;
39018;SDS011;24786;51.984;5.872;2022-10-17T07:21:36;9.65;;;8.43;;
39018;SDS011;24786;51.984;5.872;2022-10-17T07:24:02;9.13;;;7.75;;
39018;SDS011;24786;51.984;5.872;2022-10-17T07:26:27;13.82;;;8.90;;
39018;SDS011;24786;51.984;5.872;2022-10-17T07:28:53;10.48;;;8.70;;
39018;SDS011;24786;51.984;5.872;2022-10-17T07:31:20;12.73;;;8.73;;
39018;SDS011;24786;51.984;5.872;2022-10-17T07:33:49;10.70;;;8.75;;
39018;SDS011;24786;51.984;5.872;2022-10-17T07:36:15;18.05;;;8.20;;
39018;SDS011;24786;51.984;5.872;2022-10-17T07:38:41;11.75;;;8.60;;
39018;SDS011;24786;51.984;5.872;2022-10-17T07:41:07;10.88;;;8.25;;
39018;SDS011;24786;51.984;5.872;2022-10-17T07:43:35;11.85;;;8.60;;
39018;SDS011;24786;51.984;5.872;2022-10-17T07:46:01;13.50;;;8.52;;
39018;SDS011;24786;51.984;5.872;2022-10-17T07:48:29;11.68;;;7.97;;
39018;SDS011;24786;51.984;5.872;2022-10-17T07:50:54;13.32;;;8.63;;
39018;SDS011;24786;51.984;5.872;2022-10-17T07:53:20;10.85;;;8.35;;
39018;SDS011;24786;51.984;5.872;2022-10-17T07:55:46;17.05;;;9.15;;
39018;SDS011;24786;51.984;5.872;2022-10-17T08:00:40;9.13;;;7.20;;
39018;SDS011;24786;51.984;5.872;2022-10-17T08:03:06;8.73;;;7.32;;
39018;SDS011;24786;51.984;5.872;2022-10-17T08:05:32;12.05;;;8.20;;
39018;SDS011;24786;51.984;5.872;2022-10-17T08:07:58;15.65;;;8.30;;
39018;SDS011;24786;51.984;5.872;2022-10-17T08:10:24;9.65;;;7.90;;
39018;SDS011;24786;51.984;5.872;2022-10-17T08:12:52;9.77;;;7.85;;
39018;SDS011;24786;51.984;5.872;2022-10-17T08:15:18;10.50;;;8.15;;
39018;SDS011;24786;51.984;5.872;2022-10-17T08:17:44;9.65;;;7.93;;
39018;SDS011;24786;51.984;5.872;2022-10-17T08:20:16;10.75;;;8.32;;
39018;SDS011;24786;51.984;5.872;2022-10-17T08:22:57;11.25;;;8.85;;
39018;SDS011;24786;51.984;5.872;2022-10-17T08:25:38;12.98;;;9.32;;
39018;SDS011;24786;51.984;5.872;2022-10-17T08:28:04;12.10;;;9.25;;
39018;SDS011;24786;51.984;5.872;2022-10-17T08:30:30;11.23;;;8.75;;
39018;SDS011;24786;51.984;5.872;2022-10-17T08:32:56;11.77;;;8.93;;
39018;SDS011;24786;51.984;5.872;2022-10-17T08:35:22;11.80;;;9.38;;
39018;SDS011;24786;51.984;5.872;2022-10-17T08:37:47;11.50;;;8.68;;
39018;SDS011;24786;51.984;5.872;2022-10-17T08:40:16;13.13;;;9.13;;
39018;SDS011;24786;51.984;5.872;2022-10-17T08:45:32;12.80;;;9.50;;
39018;SDS011;24786;51.984;5.872;2022-10-17T08:48:16;15.80;;;8.88;;
39018;SDS011;24786;51.984;5.872;2022-10-17T08:51:16;13.02;;;8.82;;
39018;SDS011;24786;51.984;5.872;2022-10-17T08:54:05;10.85;;;8.35;;
39018;SDS011;24786;51.984;5.872;2022-10-17T08:56:55;9.57;;;8.18;;
39018;SDS011;24786;51.984;5.872;2022-10-17T08:59:26;10.65;;;8.48;;
39018;SDS011;24786;51.984;5.872;2022-10-17T09:08:06;11.13;;;8.35;;
39018;SDS011;24786;51.984;5.872;2022-10-17T09:19:18;12.43;;;8.95;;
39018;SDS011;24786;51.984;5.872;2022-10-17T09:21:50;13.45;;;8.13;;
39018;SDS011;24786;51.984;5.872;2022-10-17T09:27:03;14.38;;;8.27;;
39018;SDS011;24786;51.984;5.872;2022-10-17T09:29:29;12.50;;;8.73;;
39018;SDS011;24786;51.984;5.872;2022-10-17T09:32:02;14.48;;;8.32;;
39018;SDS011;24786;51.984;5.872;2022-10-17T09:34:36;11.93;;;8.32;;
39018;SDS011;24786;51.984;5.872;2022-10-17T09:37:15;11.73;;;8.02;;
39018;SDS011;24786;51.984;5.872;2022-10-17T09:42:14;10.95;;;7.32;;
39018;SDS011;24786;51.984;5.872;2022-10-17T09:47:44;11.80;;;7.85;;
39018;SDS011;24786;51.984;5.872;2022-10-17T09:50:19;9.82;;;7.22;;
39018;SDS011;24786;51.984;5.872;2022-10-17T09:52:50;11.07;;;7.47;;
39018;SDS011;24786;51.984;5.872;2022-10-17T09:57:50;14.75;;;7.78;;
39018;SDS011;24786;51.984;5.872;2022-10-17T10:00:21;9.40;;;8.40;;
39018;SDS011;24786;51.984;5.872;2022-10-17T10:02:49;12.05;;;7.78;;
39018;SDS011;24786;51.984;5.872;2022-10-17T10:05:18;10.05;;;7.13;;
39018;SDS011;24786;51.984;5.872;2022-10-17T10:07:59;14.80;;;8.05;;
39018;SDS011;24786;51.984;5.872;2022-10-17T10:10:27;11.35;;;8.23;;
39018;SDS011;24786;51.984;5.872;2022-10-17T10:13:05;10.88;;;7.65;;
39018;SDS011;24786;51.984;5.872;2022-10-17T10:15:41;9.77;;;6.80;;
39018;SDS011;24786;51.984;5.872;2022-10-17T10:23:38;13.38;;;7.55;;
39018;SDS011;24786;51.984;5.872;2022-10-17T10:26:24;8.20;;;6.80;;
39018;SDS011;24786;51.984;5.872;2022-10-17T10:28:55;9.95;;;7.10;;
39018;SDS011;24786;51.984;5.872;2022-10-17T10:31:30;6.80;;;6.05;;
39018;SDS011;24786;51.984;5.872;2022-10-17T10:33:59;11.35;;;6.90;;
39018;SDS011;24786;51.984;5.872;2022-10-17T10:36:49;10.07;;;7.38;;
39018;SDS011;24786;51.984;5.872;2022-10-17T10:39:25;7.85;;;6.70;;
39018;SDS011;24786;51.984;5.872;2022-10-17T10:41:52;7.78;;;6.07;;
39018;SDS011;24786;51.984;5.872;2022-10-17T10:44:19;10.23;;;7.20;;
39018;SDS011;24786;51.984;5.872;2022-10-17T10:46:48;16.95;;;6.97;;
39018;SDS011;24786;51.984;5.872;2022-10-17T10:49:41;9.23;;;6.72;;
39018;SDS011;24786;51.984;5.872;2022-10-17T10:52:07;9.32;;;6.80;;
39018;SDS011;24786;51.984;5.872;2022-10-17T10:54:41;13.68;;;7.18;;
39018;SDS011;24786;51.984;5.872;2022-10-17T10:57:18;10.63;;;6.50;;
39018;SDS011;24786;51.984;5.872;2022-10-17T11:05:36;8.55;;;6.32;;
39018;SDS011;24786;51.984;5.872;2022-10-17T11:11:04;10.18;;;6.80;;
39018;SDS011;24786;51.984;5.872;2022-10-17T11:13:43;7.93;;;6.90;;
39018;SDS011;24786;51.984;5.872;2022-10-17T11:16:22;7.95;;;6.65;;
39018;SDS011;24786;51.984;5.872;2022-10-17T11:19:06;11.35;;;6.68;;
39018;SDS011;24786;51.984;5.872;2022-10-17T11:27:07;8.02;;;6.93;;
39018;SDS011;24786;51.984;5.872;2022-10-17T11:29:34;10.10;;;7.45;;
39018;SDS011;24786;51.984;5.872;2022-10-17T11:32:08;8.55;;;7.65;;
39018;SDS011;24786;51.984;5.872;2022-10-17T11:34:45;8.95;;;7.15;;
39018;SDS011;24786;51.984;5.872;2022-10-17T11:37:23;10.23;;;6.80;;
39018;SDS011;24786;51.984;5.872;2022-10-17T11:40:01;9.05;;;6.78;;
39018;SDS011;24786;51.984;5.872;2022-10-17T11:42:38;10.35;;;7.35;;
39018;SDS011;24786;51.984;5.872;2022-10-17T11:45:18;8.88;;;6.05;;
39018;SDS011;24786;51.984;5.872;2022-10-17T11:47:48;7.55;;;6.40;;
39018;SDS011;24786;51.984;5.872;2022-10-17T11:50:23;10.57;;;7.93;;
39018;SDS011;24786;51.984;5.872;2022-10-17T11:55:53;10.00;;;7.47;;
39018;SDS011;24786;51.984;5.872;2022-10-17T12:06:44;11.77;;;8.48;;
39018;SDS011;24786;51.984;5.872;2022-10-17T12:12:29;9.88;;;8.85;;
39018;SDS011;24786;51.984;5.872;2022-10-17T12:17:36;14.95;;;9.40;;
39018;SDS011;24786;51.984;5.872;2022-10-17T12:22:49;13.48;;;9.55;;
39018;SDS011;24786;51.984;5.872;2022-10-17T12:25:26;10.43;;;9.23;;
39018;SDS011;24786;51.984;5.872;2022-10-17T12:30:31;11.13;;;8.63;;
39018;SDS011;24786;51.984;5.872;2022-10-17T12:33:15;12.07;;;9.10;;
39018;SDS011;24786;51.984;5.872;2022-10-17T12:35:47;11.48;;;8.55;;
39018;SDS011;24786;51.984;5.872;2022-10-17T12:38:24;13.90;;;9.27;;
39018;SDS011;24786;51.984;5.872;2022-10-17T12:40:52;14.73;;;8.93;;
39018;SDS011;24786;51.984;5.872;2022-10-17T12:45:54;12.02;;;8.57;;
39018;SDS011;24786;51.984;5.872;2022-10-17T12:51:06;12.55;;;9.50;;
39018;SDS011;24786;51.984;5.872;2022-10-17T12:53:37;12.50;;;9.35;;
39018;SDS011;24786;51.984;5.872;2022-10-17T12:56:18;13.05;;;9.07;;
39018;SDS011;24786;51.984;5.872;2022-10-17T12:58:49;15.35;;;10.05;;
39018;SDS011;24786;51.984;5.872;2022-10-17T13:01:16;13.60;;;9.43;;
39018;SDS011;24786;51.984;5.872;2022-10-17T13:03:46;14.38;;;8.93;;
39018;SDS011;24786;51.984;5.872;2022-10-17T13:06:20;13.23;;;9.40;;
39018;SDS011;24786;51.984;5.872;2022-10-17T13:08:52;13.98;;;9.50;;
39018;SDS011;24786;51.984;5.872;2022-10-17T13:11:24;12.85;;;9.40;;
39018;SDS011;24786;51.984;5.872;2022-10-17T13:13:52;14.70;;;8.93;;
39018;SDS011;24786;51.984;5.872;2022-10-17T13:16:26;16.98;;;9.88;;
39018;SDS011;24786;51.984;5.872;2022-10-17T13:19:03;12.30;;;9.13;;
39018;SDS011;24786;51.984;5.872;2022-10-17T13:21:53;12.30;;;8.27;;
39018;SDS011;24786;51.984;5.872;2022-10-17T13:24:31;11.82;;;8.77;;
39018;SDS011;24786;51.984;5.872;2022-10-17T13:27:02;12.40;;;9.07;;
39018;SDS011;24786;51.984;5.872;2022-10-17T13:29:29;10.70;;;8.77;;
39018;SDS011;24786;51.984;5.872;2022-10-17T13:32:00;17.90;;;9.15;;
39018;SDS011;24786;51.984;5.872;2022-10-17T13:34:28;9.38;;;8.30;;
39018;SDS011;24786;51.984;5.872;2022-10-17T13:37:13;13.18;;;9.65;;
39018;SDS011;24786;51.984;5.872;2022-10-17T13:39:40;12.73;;;9.77;;
39018;SDS011;24786;51.984;5.872;2022-10-17T13:45:04;15.50;;;9.85;;
39018;SDS011;24786;51.984;5.872;2022-10-17T13:48:03;11.32;;;8.88;;
39018;SDS011;24786;51.984;5.872;2022-10-17T13:58:24;10.90;;;8.95;;
39018;SDS011;24786;51.984;5.872;2022-10-17T14:00:59;12.20;;;9.75;;
39018;SDS011;24786;51.984;5.872;2022-10-17T14:03:24;14.48;;;10.02;;
39018;SDS011;24786;51.984;5.872;2022-10-17T14:06:07;14.00;;;9.70;;
39018;SDS011;24786;51.984;5.872;2022-10-17T14:11:55;10.90;;;9.00;;
39018;SDS011;24786;51.984;5.872;2022-10-17T14:14:21;11.07;;;9.88;;
39018;SDS011;24786;51.984;5.872;2022-10-17T14:16:49;15.57;;;11.13;;
39018;SDS011;24786;51.984;5.872;2022-10-17T14:21:52;14.45;;;11.45;;
39018;SDS011;24786;51.984;5.872;2022-10-17T14:24:44;16.02;;;10.68;;
39018;SDS011;24786;51.984;5.872;2022-10-17T14:27:27;17.13;;;12.80;;
39018;SDS011;24786;51.984;5.872;2022-10-17T14:29:54;15.65;;;11.20;;
39018;SDS011;24786;51.984;5.872;2022-10-17T14:32:24;18.35;;;11.90;;
39018;SDS011;24786;51.984;5.872;2022-10-17T14:34:52;20.55;;;12.18;;
39018;SDS011;24786;51.984;5.872;2022-10-17T14:37:37;14.25;;;11.85;;
39018;SDS011;24786;51.984;5.872;2022-10-17T14:45:26;16.48;;;11.55;;
39018;SDS011;24786;51.984;5.872;2022-10-17T14:48:00;13.73;;;11.27;;
39018;SDS011;24786;51.984;5.872;2022-10-17T14:50:38;15.13;;;11.30;;
39018;SDS011;24786;51.984;5.872;2022-10-17T14:58:55;18.65;;;12.05;;
39018;SDS011;24786;51.984;5.872;2022-10-17T15:01:21;17.90;;;12.18;;
39018;SDS011;24786;51.984;5.872;2022-10-17T15:03:47;17.23;;;12.25;;
39018;SDS011;24786;51.984;5.872;2022-10-17T15:06:18;16.83;;;12.07;;
39018;SDS011;24786;51.984;5.872;2022-10-17T15:08:57;15.98;;;12.13;;
39018;SDS011;24786;51.984;5.872;2022-10-17T15:11:22;15.32;;;11.75;;
39018;SDS011;24786;51.984;5.872;2022-10-17T15:13:48;13.82;;;12.20;;
39018;SDS011;24786;51.984;5.872;2022-10-17T15:16:17;14.10;;;11.50;;
39018;SDS011;24786;51.984;5.872;2022-10-17T15:18:44;17.05;;;12.50;;
39018;SDS011;24786;51.984;5.872;2022-10-17T15:21:11;14.10;;;11.02;;
39018;SDS011;24786;51.984;5.872;2022-10-17T15:23:38;14.98;;;12.23;;
39018;SDS011;24786;51.984;5.872;2022-10-17T15:26:09;17.88;;;12.50;;
39018;SDS011;24786;51.984;5.872;2022-10-17T15:28:40;16.33;;;13.52;;
39018;SDS011;24786;51.984;5.872;2022-10-17T15:31:10;14.83;;;11.93;;
39018;SDS011;24786;51.984;5.872;2022-10-17T15:33:37;16.08;;;13.18;;
39018;SDS011;24786;51.984;5.872;2022-10-17T15:36:02;15.48;;;12.98;;
39018;SDS011;24786;51.984;5.872;2022-10-17T15:38:28;17.63;;;13.07;;
39018;SDS011;24786;51.984;5.872;2022-10-17T15:40:54;15.48;;;11.90;;
39018;SDS011;24786;51.984;5.872;2022-10-17T15:43:19;21.25;;;14.45;;
39018;SDS011;24786;51.984;5.872;2022-10-17T15:45:45;16.73;;;13.65;;
39018;SDS011;24786;51.984;5.872;2022-10-17T15:48:14;15.68;;;11.93;;
39018;SDS011;24786;51.984;5.872;2022-10-17T15:50:43;18.50;;;14.23;;
39018;SDS011;24786;51.984;5.872;2022-10-17T15:53:12;16.60;;;13.02;;
39018;SDS011;24786;51.984;5.872;2022-10-17T15:55:38;17.02;;;13.55;;
39018;SDS011;24786;51.984;5.872;2022-10-17T15:58:03;16.08;;;12.90;;
39018;SDS011;24786;51.984;5.872;2022-10-17T16:00:29;19.05;;;13.43;;
39018;SDS011;24786;51.984;5.872;2022-10-17T16:02:55;16.25;;;13.18;;
39018;SDS011;24786;51.984;5.872;2022-10-17T16:05:23;20.08;;;14.88;;
39018;SDS011;24786;51.984;5.872;2022-10-17T16:07:50;17.42;;;13.48;;
39018;SDS011;24786;51.984;5.872;2022-10-17T16:10:17;18.70;;;14.57;;
39018;SDS011;24786;51.984;5.872;2022-10-17T16:12:44;18.20;;;13.65;;
39018;SDS011;24786;51.984;5.872;2022-10-17T16:15:12;16.88;;;13.75;;
39018;SDS011;24786;51.984;5.872;2022-10-17T16:17:43;17.98;;;13.15;;
39018;SDS011;24786;51.984;5.872;2022-10-17T16:20:11;18.60;;;13.70;;
39018;SDS011;24786;51.984;5.872;2022-10-17T16:22:46;19.95;;;14.18;;
39018;SDS011;24786;51.984;5.872;2022-10-17T16:25:25;17.75;;;13.77;;
39018;SDS011;24786;51.984;5.872;2022-10-17T16:27:54;19.80;;;15.60;;
39018;SDS011;24786;51.984;5.872;2022-10-17T16:30:21;16.20;;;13.30;;
39018;SDS011;24786;51.984;5.872;2022-10-17T16:32:48;20.70;;;14.07;;
39018;SDS011;24786;51.984;5.872;2022-10-17T16:35:20;18.95;;;14.32;;
39018;SDS011;24786;51.984;5.872;2022-10-17T16:37:51;21.23;;;14.80;;
39018;SDS011;24786;51.984;5.872;2022-10-17T16:40:16;18.27;;;14.55;;
39018;SDS011;24786;51.984;5.872;2022-10-17T16:42:42;18.17;;;14.63;;
39018;SDS011;24786;51.984;5.872;2022-10-17T16:45:16;22.10;;;14.73;;
39018;SDS011;24786;51.984;5.872;2022-10-17T16:47:43;18.63;;;13.82;;
39018;SDS011;24786;51.984;5.872;2022-10-17T16:50:09;16.83;;;13.52;;
39018;SDS011;24786;51.984;5.872;2022-10-17T16:52:35;23.55;;;14.38;;
39018;SDS011;24786;51.984;5.872;2022-10-17T16:55:01;21.92;;;14.52;;
39018;SDS011;24786;51.984;5.872;2022-10-17T16:57:27;19.67;;;14.38;;
39018;SDS011;24786;51.984;5.872;2022-10-17T16:59:52;18.92;;;14.30;;
39018;SDS011;24786;51.984;5.872;2022-10-17T17:02:18;20.65;;;15.00;;
39018;SDS011;24786;51.984;5.872;2022-10-17T17:04:47;21.92;;;14.75;;
39018;SDS011;24786;51.984;5.872;2022-10-17T17:07:12;25.25;;;14.63;;
39018;SDS011;24786;51.984;5.872;2022-10-17T17:09:38;20.48;;;15.55;;
39018;SDS011;24786;51.984;5.872;2022-10-17T17:12:04;23.48;;;14.88;;
39018;SDS011;24786;51.984;5.872;2022-10-17T17:14:29;19.27;;;14.38;;
39018;SDS011;24786;51.984;5.872;2022-10-17T17:16:55;17.45;;;14.13;;
39018;SDS011;24786;51.984;5.872;2022-10-17T17:19:21;26.80;;;15.35;;
39018;SDS011;24786;51.984;5.872;2022-10-17T17:21:46;20.98;;;14.02;;
39018;SDS011;24786;51.984;5.872;2022-10-17T17:24:16;22.67;;;15.13;;
39018;SDS011;24786;51.984;5.872;2022-10-17T17:26:42;24.17;;;15.30;;
39018;SDS011;24786;51.984;5.872;2022-10-17T17:29:08;20.95;;;15.65;;
39018;SDS011;24786;51.984;5.872;2022-10-17T17:31:36;19.17;;;14.68;;
39018;SDS011;24786;51.984;5.872;2022-10-17T17:34:03;20.23;;;14.68;;
39018;SDS011;24786;51.984;5.872;2022-10-17T17:36:33;19.85;;;14.90;;
39018;SDS011;24786;51.984;5.872;2022-10-17T17:39:01;19.13;;;14.25;;
39018;SDS011;24786;51.984;5.872;2022-10-17T17:41:28;18.42;;;14.35;;
39018;SDS011;24786;51.984;5.872;2022-10-17T17:43:54;21.98;;;16.05;;
39018;SDS011;24786;51.984;5.872;2022-10-17T17:46:20;22.08;;;15.07;;
39018;SDS011;24786;51.984;5.872;2022-10-17T17:48:47;20.42;;;13.52;;
39018;SDS011;24786;51.984;5.872;2022-10-17T17:51:18;20.23;;;15.27;;